sensor_id;sensor_type;location;lat;lon;timestamp;temperature;humidity
53208;DHT22;39093;52.788;6.940;2022-09-24T00:01:13;13.10;99.90
53208;DHT22;39093;52.788;6.940;2022-09-24T00:03:43;13.10;99.90
53208;DHT22;39093;52.788;6.940;2022-09-24T00:06:13;13.20;99.90
53208;DHT22;39093;52.788;6.940;2022-09-24T00:08:40;13.10;99.90
53208;DHT22;39093;52.788;6.940;2022-09-24T00:11:11;13.10;99.90
53208;DHT22;39093;52.788;6.940;2022-09-24T00:13:39;13.10;99.90
53208;DHT22;39093;52.788;6.940;2022-09-24T00:16:11;13.10;99.90
53208;DHT22;39093;52.788;6.940;2022-09-24T00:18:39;13.20;99.90
53208;DHT22;39093;52.788;6.940;2022-09-24T00:21:14;13.10;99.90
53208;DHT22;39093;52.788;6.940;2022-09-24T00:23:42;13.20;99.90
53208;DHT22;39093;52.788;6.940;2022-09-24T00:26:10;13.20;99.90
53208;DHT22;39093;52.788;6.940;2022-09-24T00:28:57;13.20;99.90
53208;DHT22;39093;52.788;6.940;2022-09-24T00:31:25;13.20;99.90
53208;DHT22;39093;52.788;6.940;2022-09-24T00:33:52;13.20;99.90
53208;DHT22;39093;52.788;6.940;2022-09-24T00:36:21;13.20;99.90
53208;DHT22;39093;52.788;6.940;2022-09-24T00:38:50;13.20;99.90
53208;DHT22;39093;52.788;6.940;2022-09-24T00:41:22;13.20;99.90
53208;DHT22;39093;52.788;6.940;2022-09-24T00:43:50;13.20;99.90
53208;DHT22;39093;52.788;6.940;2022-09-24T00:49:14;13.30;99.90
53208;DHT22;39093;52.788;6.940;2022-09-24T00:51:43;13.20;99.90
53208;DHT22;39093;52.788;6.940;2022-09-24T00:54:18;13.20;99.90
53208;DHT22;39093;52.788;6.940;2022-09-24T00:56:47;13.20;99.90
53208;DHT22;39093;52.788;6.940;2022-09-24T00:59:16;13.30;99.90
53208;DHT22;39093;52.788;6.940;2022-09-24T01:01:45;13.20;99.90
53208;DHT22;39093;52.788;6.940;2022-09-24T01:04:13;13.30;99.90
53208;DHT22;39093;52.788;6.940;2022-09-24T01:06:41;13.30;99.90
53208;DHT22;39093;52.788;6.940;2022-09-24T01:09:09;13.30;99.90
53208;DHT22;39093;52.788;6.940;2022-09-24T01:17:34;13.40;99.90
53208;DHT22;39093;52.788;6.940;2022-09-24T01:30:50;13.40;99.90
53208;DHT22;39093;52.788;6.940;2022-09-24T01:33:21;13.40;99.90
53208;DHT22;39093;52.788;6.940;2022-09-24T01:35:54;13.40;99.90
53208;DHT22;39093;52.788;6.940;2022-09-24T01:38:29;13.30;99.90
53208;DHT22;39093;52.788;6.940;2022-09-24T01:40:59;13.40;99.90
53208;DHT22;39093;52.788;6.940;2022-09-24T01:43:28;13.30;99.90
53208;DHT22;39093;52.788;6.940;2022-09-24T01:45:59;13.40;99.90
53208;DHT22;39093;52.788;6.940;2022-09-24T01:48:28;13.40;99.90
53208;DHT22;39093;52.788;6.940;2022-09-24T01:51:09;13.40;99.90
53208;DHT22;39093;52.788;6.940;2022-09-24T01:54:01;13.30;99.90
53208;DHT22;39093;52.788;6.940;2022-09-24T01:56:31;13.40;99.90
53208;DHT22;39093;52.788;6.940;2022-09-24T01:59:09;13.30;99.90
53208;DHT22;39093;52.788;6.940;2022-09-24T02:01:46;13.40;99.90
53208;DHT22;39093;52.788;6.940;2022-09-24T02:04:17;13.40;99.90
53208;DHT22;39093;52.788;6.940;2022-09-24T02:07:00;13.40;99.90
53208;DHT22;39093;52.788;6.940;2022-09-24T02:09:34;13.30;99.90
53208;DHT22;39093;52.788;6.940;2022-09-24T02:14:43;13.30;99.90
53208;DHT22;39093;52.788;6.940;2022-09-24T02:17:11;13.40;99.90
53208;DHT22;39093;52.788;6.940;2022-09-24T02:19:40;13.40;99.90
53208;DHT22;39093;52.788;6.940;2022-09-24T02:22:09;13.40;99.90
53208;DHT22;39093;52.788;6.940;2022-09-24T02:24:49;13.40;99.90
53208;DHT22;39093;52.788;6.940;2022-09-24T02:27:17;13.40;99.90
53208;DHT22;39093;52.788;6.940;2022-09-24T02:29:45;13.30;99.90
53208;DHT22;39093;52.788;6.940;2022-09-24T02:32:14;13.30;99.90
53208;DHT22;39093;52.788;6.940;2022-09-24T02:34:47;13.30;99.90
53208;DHT22;39093;52.788;6.940;2022-09-24T02:37:16;13.30;99.90
53208;DHT22;39093;52.788;6.940;2022-09-24T02:39:43;13.40;99.90
53208;DHT22;39093;52.788;6.940;2022-09-24T02:42:12;13.30;99.90
53208;DHT22;39093;52.788;6.940;2022-09-24T02:44:39;13.30;99.90
53208;DHT22;39093;52.788;6.940;2022-09-24T02:47:06;13.30;99.90
53208;DHT22;39093;52.788;6.940;2022-09-24T02:49:34;13.30;99.90
53208;DHT22;39093;52.788;6.940;2022-09-24T02:52:01;13.20;99.90
53208;DHT22;39093;52.788;6.940;2022-09-24T02:54:28;13.30;99.90
53208;DHT22;39093;52.788;6.940;2022-09-24T02:56:55;13.30;99.90
53208;DHT22;39093;52.788;6.940;2022-09-24T02:59:21;13.20;99.90
53208;DHT22;39093;52.788;6.940;2022-09-24T03:01:48;13.30;99.90
53208;DHT22;39093;52.788;6.940;2022-09-24T03:04:16;13.20;99.90
53208;DHT22;39093;52.788;6.940;2022-09-24T03:06:43;13.20;99.90
53208;DHT22;39093;52.788;6.940;2022-09-24T03:09:13;13.20;99.90
53208;DHT22;39093;52.788;6.940;2022-09-24T03:11:40;13.20;99.90
53208;DHT22;39093;52.788;6.940;2022-09-24T03:14:07;13.20;99.90
53208;DHT22;39093;52.788;6.940;2022-09-24T03:16:34;13.20;99.90
53208;DHT22;39093;52.788;6.940;2022-09-24T03:19:01;13.30;99.90
53208;DHT22;39093;52.788;6.940;2022-09-24T03:21:29;13.20;99.90
53208;DHT22;39093;52.788;6.940;2022-09-24T03:23:56;13.20;99.90
53208;DHT22;39093;52.788;6.940;2022-09-24T03:26:23;13.20;99.90
53208;DHT22;39093;52.788;6.940;2022-09-24T03:28:50;13.30;99.90
53208;DHT22;39093;52.788;6.940;2022-09-24T03:31:19;13.20;99.90
53208;DHT22;39093;52.788;6.940;2022-09-24T03:33:50;13.20;99.90
53208;DHT22;39093;52.788;6.940;2022-09-24T03:36:22;13.20;99.90
53208;DHT22;39093;52.788;6.940;2022-09-24T03:38:52;13.30;99.90
53208;DHT22;39093;52.788;6.940;2022-09-24T03:41:24;13.40;99.90
53208;DHT22;39093;52.788;6.940;2022-09-24T03:43:53;13.20;99.90
53208;DHT22;39093;52.788;6.940;2022-09-24T03:46:20;13.30;99.90
53208;DHT22;39093;52.788;6.940;2022-09-24T03:48:47;13.30;99.90
53208;DHT22;39093;52.788;6.940;2022-09-24T03:51:17;13.20;99.90
53208;DHT22;39093;52.788;6.940;2022-09-24T03:53:45;13.20;99.90
53208;DHT22;39093;52.788;6.940;2022-09-24T03:56:13;13.20;99.90
53208;DHT22;39093;52.788;6.940;2022-09-24T03:58:40;13.20;99.90
53208;DHT22;39093;52.788;6.940;2022-09-24T04:01:08;13.20;99.90
53208;DHT22;39093;52.788;6.940;2022-09-24T04:03:36;13.20;99.90
53208;DHT22;39093;52.788;6.940;2022-09-24T04:06:03;13.20;99.90
53208;DHT22;39093;52.788;6.940;2022-09-24T04:08:30;13.20;99.90
53208;DHT22;39093;52.788;6.940;2022-09-24T04:10:58;13.20;99.90
53208;DHT22;39093;52.788;6.940;2022-09-24T04:13:25;13.20;99.90
53208;DHT22;39093;52.788;6.940;2022-09-24T04:15:52;13.20;99.90
53208;DHT22;39093;52.788;6.940;2022-09-24T04:18:21;13.20;99.90
53208;DHT22;39093;52.788;6.940;2022-09-24T04:20:48;13.20;99.90
53208;DHT22;39093;52.788;6.940;2022-09-24T04:23:15;13.20;99.90
53208;DHT22;39093;52.788;6.940;2022-09-24T04:25:41;13.20;99.90
53208;DHT22;39093;52.788;6.940;2022-09-24T04:28:09;13.20;99.90
53208;DHT22;39093;52.788;6.940;2022-09-24T04:30:36;13.30;99.90
53208;DHT22;39093;52.788;6.940;2022-09-24T04:33:04;13.30;99.90
53208;DHT22;39093;52.788;6.940;2022-09-24T04:35:33;13.30;99.90
53208;DHT22;39093;52.788;6.940;2022-09-24T04:38:03;13.30;99.90
53208;DHT22;39093;52.788;6.940;2022-09-24T04:40:30;13.30;99.90
53208;DHT22;39093;52.788;6.940;2022-09-24T04:42:57;13.20;99.90
53208;DHT22;39093;52.788;6.940;2022-09-24T04:45:25;13.20;99.90
53208;DHT22;39093;52.788;6.940;2022-09-24T04:47:53;13.30;99.90
53208;DHT22;39093;52.788;6.940;2022-09-24T04:50:24;13.30;99.90
53208;DHT22;39093;52.788;6.940;2022-09-24T04:52:52;13.20;99.90
53208;DHT22;39093;52.788;6.940;2022-09-24T04:55:20;13.30;99.90
53208;DHT22;39093;52.788;6.940;2022-09-24T04:57:48;13.20;99.90
53208;DHT22;39093;52.788;6.940;2022-09-24T05:00:17;13.20;99.90
53208;DHT22;39093;52.788;6.940;2022-09-24T05:02:45;13.20;99.90
53208;DHT22;39093;52.788;6.940;2022-09-24T05:05:12;13.20;99.90
53208;DHT22;39093;52.788;6.940;2022-09-24T05:07:40;13.20;99.90
53208;DHT22;39093;52.788;6.940;2022-09-24T05:10:08;13.30;99.90
53208;DHT22;39093;52.788;6.940;2022-09-24T05:12:35;13.30;99.90
53208;DHT22;39093;52.788;6.940;2022-09-24T05:15:03;13.30;99.90
53208;DHT22;39093;52.788;6.940;2022-09-24T05:17:30;13.30;99.90
53208;DHT22;39093;52.788;6.940;2022-09-24T05:19:57;13.30;99.90
53208;DHT22;39093;52.788;6.940;2022-09-24T05:22:25;13.20;99.90
53208;DHT22;39093;52.788;6.940;2022-09-24T05:24:56;13.20;99.90
53208;DHT22;39093;52.788;6.940;2022-09-24T05:27:23;13.20;99.90
53208;DHT22;39093;52.788;6.940;2022-09-24T05:29:50;13.20;99.90
53208;DHT22;39093;52.788;6.940;2022-09-24T05:32:18;13.30;99.90
53208;DHT22;39093;52.788;6.940;2022-09-24T05:34:46;13.20;99.90
53208;DHT22;39093;52.788;6.940;2022-09-24T05:37:13;13.30;99.90
53208;DHT22;39093;52.788;6.940;2022-09-24T05:39:41;13.30;99.90
53208;DHT22;39093;52.788;6.940;2022-09-24T05:42:11;13.30;99.90
53208;DHT22;39093;52.788;6.940;2022-09-24T05:44:41;13.30;99.90
53208;DHT22;39093;52.788;6.940;2022-09-24T05:47:17;13.30;99.90
53208;DHT22;39093;52.788;6.940;2022-09-24T05:49:44;13.40;99.90
53208;DHT22;39093;52.788;6.940;2022-09-24T05:52:11;13.40;99.90
53208;DHT22;39093;52.788;6.940;2022-09-24T05:54:38;13.20;99.90
53208;DHT22;39093;52.788;6.940;2022-09-24T05:57:05;13.30;99.90
53208;DHT22;39093;52.788;6.940;2022-09-24T05:59:32;13.30;99.90
53208;DHT22;39093;52.788;6.940;2022-09-24T06:01:59;13.30;99.90
53208;DHT22;39093;52.788;6.940;2022-09-24T06:04:26;13.30;99.90
53208;DHT22;39093;52.788;6.940;2022-09-24T06:06:53;13.30;99.90
53208;DHT22;39093;52.788;6.940;2022-09-24T06:09:20;13.30;99.90
53208;DHT22;39093;52.788;6.940;2022-09-24T06:11:47;13.30;99.90
53208;DHT22;39093;52.788;6.940;2022-09-24T06:14:16;13.30;99.90
53208;DHT22;39093;52.788;6.940;2022-09-24T06:16:43;13.30;99.90
53208;DHT22;39093;52.788;6.940;2022-09-24T06:19:10;13.30;99.90
53208;DHT22;39093;52.788;6.940;2022-09-24T06:21:37;13.30;99.90
53208;DHT22;39093;52.788;6.940;2022-09-24T06:24:04;13.30;99.90
53208;DHT22;39093;52.788;6.940;2022-09-24T06:26:31;13.30;99.90
53208;DHT22;39093;52.788;6.940;2022-09-24T06:28:58;13.30;99.90
53208;DHT22;39093;52.788;6.940;2022-09-24T06:31:30;13.40;99.90
53208;DHT22;39093;52.788;6.940;2022-09-24T06:33:57;13.40;99.90
53208;DHT22;39093;52.788;6.940;2022-09-24T06:36:25;13.40;99.90
53208;DHT22;39093;52.788;6.940;2022-09-24T06:38:52;13.40;99.90
53208;DHT22;39093;52.788;6.940;2022-09-24T06:41:19;13.30;99.90
53208;DHT22;39093;52.788;6.940;2022-09-24T06:43:46;13.40;99.90
53208;DHT22;39093;52.788;6.940;2022-09-24T06:46:13;13.40;99.90
53208;DHT22;39093;52.788;6.940;2022-09-24T06:48:41;13.40;99.90
53208;DHT22;39093;52.788;6.940;2022-09-24T06:51:08;13.40;99.90
53208;DHT22;39093;52.788;6.940;2022-09-24T06:53:35;13.40;99.90
53208;DHT22;39093;52.788;6.940;2022-09-24T06:56:02;13.40;99.90
53208;DHT22;39093;52.788;6.940;2022-09-24T06:58:29;13.40;99.90
53208;DHT22;39093;52.788;6.940;2022-09-24T07:00:59;13.40;99.90
53208;DHT22;39093;52.788;6.940;2022-09-24T07:03:29;13.40;99.90
53208;DHT22;39093;52.788;6.940;2022-09-24T07:06:00;13.40;99.90
53208;DHT22;39093;52.788;6.940;2022-09-24T07:08:27;13.50;99.90
53208;DHT22;39093;52.788;6.940;2022-09-24T07:10:54;13.50;99.90
53208;DHT22;39093;52.788;6.940;2022-09-24T07:13:21;13.50;99.90
53208;DHT22;39093;52.788;6.940;2022-09-24T07:15:49;13.50;99.90
53208;DHT22;39093;52.788;6.940;2022-09-24T07:18:18;13.50;99.90
53208;DHT22;39093;52.788;6.940;2022-09-24T07:20:51;13.50;99.90
53208;DHT22;39093;52.788;6.940;2022-09-24T07:23:18;13.60;99.90
53208;DHT22;39093;52.788;6.940;2022-09-24T07:25:45;13.60;99.90
53208;DHT22;39093;52.788;6.940;2022-09-24T07:28:13;13.60;99.90
53208;DHT22;39093;52.788;6.940;2022-09-24T07:30:41;13.60;99.90
53208;DHT22;39093;52.788;6.940;2022-09-24T07:33:08;13.70;99.90
53208;DHT22;39093;52.788;6.940;2022-09-24T07:35:39;13.70;99.90
53208;DHT22;39093;52.788;6.940;2022-09-24T07:38:09;13.70;99.90
53208;DHT22;39093;52.788;6.940;2022-09-24T07:40:38;13.70;99.90
53208;DHT22;39093;52.788;6.940;2022-09-24T07:43:05;13.70;99.90
53208;DHT22;39093;52.788;6.940;2022-09-24T07:45:40;13.70;99.90
53208;DHT22;39093;52.788;6.940;2022-09-24T07:48:08;13.70;99.90
53208;DHT22;39093;52.788;6.940;2022-09-24T07:50:38;13.60;99.90
53208;DHT22;39093;52.788;6.940;2022-09-24T07:53:05;13.60;99.90
53208;DHT22;39093;52.788;6.940;2022-09-24T07:55:32;13.60;99.90
53208;DHT22;39093;52.788;6.940;2022-09-24T07:58:06;13.60;99.90
53208;DHT22;39093;52.788;6.940;2022-09-24T08:00:34;13.60;99.90
53208;DHT22;39093;52.788;6.940;2022-09-24T08:03:02;13.60;99.90
53208;DHT22;39093;52.788;6.940;2022-09-24T08:05:29;13.60;99.90
53208;DHT22;39093;52.788;6.940;2022-09-24T08:07:56;13.60;99.90
53208;DHT22;39093;52.788;6.940;2022-09-24T08:10:25;13.50;99.90
53208;DHT22;39093;52.788;6.940;2022-09-24T08:12:52;13.60;99.90
53208;DHT22;39093;52.788;6.940;2022-09-24T08:15:19;13.60;99.90
53208;DHT22;39093;52.788;6.940;2022-09-24T08:17:48;13.70;99.90
53208;DHT22;39093;52.788;6.940;2022-09-24T08:20:16;13.50;99.90
53208;DHT22;39093;52.788;6.940;2022-09-24T08:22:43;13.50;99.90
53208;DHT22;39093;52.788;6.940;2022-09-24T08:25:10;13.50;99.90
53208;DHT22;39093;52.788;6.940;2022-09-24T08:27:36;13.50;99.90
53208;DHT22;39093;52.788;6.940;2022-09-24T08:30:05;13.40;99.90
53208;DHT22;39093;52.788;6.940;2022-09-24T08:32:32;13.50;99.90
53208;DHT22;39093;52.788;6.940;2022-09-24T08:34:59;13.60;99.90
53208;DHT22;39093;52.788;6.940;2022-09-24T08:37:29;13.70;99.90
53208;DHT22;39093;52.788;6.940;2022-09-24T08:39:56;13.70;99.90
53208;DHT22;39093;52.788;6.940;2022-09-24T08:45:05;13.70;99.90
53208;DHT22;39093;52.788;6.940;2022-09-24T08:47:55;13.70;99.90
53208;DHT22;39093;52.788;6.940;2022-09-24T08:50:29;13.70;99.90
53208;DHT22;39093;52.788;6.940;2022-09-24T08:53:04;13.70;99.90
53208;DHT22;39093;52.788;6.940;2022-09-24T08:55:50;13.70;99.90
53208;DHT22;39093;52.788;6.940;2022-09-24T08:58:39;13.80;99.90
53208;DHT22;39093;52.788;6.940;2022-09-24T09:01:13;13.80;99.90
53208;DHT22;39093;52.788;6.940;2022-09-24T09:12:22;13.90;99.90
53208;DHT22;39093;52.788;6.940;2022-09-24T09:15:09;13.90;99.90
53208;DHT22;39093;52.788;6.940;2022-09-24T09:17:53;14.00;99.90
53208;DHT22;39093;52.788;6.940;2022-09-24T09:20:50;14.00;99.90
53208;DHT22;39093;52.788;6.940;2022-09-24T09:23:29;14.00;99.90
53208;DHT22;39093;52.788;6.940;2022-09-24T09:25:58;14.00;99.90
53208;DHT22;39093;52.788;6.940;2022-09-24T09:28:26;14.10;99.90
53208;DHT22;39093;52.788;6.940;2022-09-24T09:33:51;14.20;99.90
53208;DHT22;39093;52.788;6.940;2022-09-24T09:36:42;14.30;99.90
53208;DHT22;39093;52.788;6.940;2022-09-24T09:44:52;14.50;99.90
53208;DHT22;39093;52.788;6.940;2022-09-24T09:47:42;14.50;99.90
53208;DHT22;39093;52.788;6.940;2022-09-24T09:53:05;14.50;99.90
53208;DHT22;39093;52.788;6.940;2022-09-24T09:55:36;14.40;99.90
53208;DHT22;39093;52.788;6.940;2022-09-24T09:58:17;14.40;99.90
53208;DHT22;39093;52.788;6.940;2022-09-24T10:00:45;14.40;99.90
53208;DHT22;39093;52.788;6.940;2022-09-24T10:03:28;14.40;99.90
53208;DHT22;39093;52.788;6.940;2022-09-24T10:06:00;14.40;99.90
53208;DHT22;39093;52.788;6.940;2022-09-24T10:08:28;14.40;99.90
53208;DHT22;39093;52.788;6.940;2022-09-24T10:10:57;14.40;99.90
53208;DHT22;39093;52.788;6.940;2022-09-24T10:13:26;14.50;99.90
53208;DHT22;39093;52.788;6.940;2022-09-24T10:15:58;14.50;99.90
53208;DHT22;39093;52.788;6.940;2022-09-24T10:18:55;14.50;99.90
53208;DHT22;39093;52.788;6.940;2022-09-24T10:21:31;14.60;99.90
53208;DHT22;39093;52.788;6.940;2022-09-24T10:24:10;14.50;99.90
53208;DHT22;39093;52.788;6.940;2022-09-24T10:26:40;14.60;99.90
53208;DHT22;39093;52.788;6.940;2022-09-24T10:29:16;14.70;99.90
53208;DHT22;39093;52.788;6.940;2022-09-24T10:32:03;14.70;99.90
53208;DHT22;39093;52.788;6.940;2022-09-24T10:34:31;14.80;99.90
53208;DHT22;39093;52.788;6.940;2022-09-24T10:37:03;14.90;99.90
53208;DHT22;39093;52.788;6.940;2022-09-24T10:39:36;14.90;99.90
53208;DHT22;39093;52.788;6.940;2022-09-24T10:42:03;15.10;99.90
53208;DHT22;39093;52.788;6.940;2022-09-24T10:44:35;15.10;99.90
53208;DHT22;39093;52.788;6.940;2022-09-24T10:47:19;15.10;99.90
53208;DHT22;39093;52.788;6.940;2022-09-24T10:50:16;15.10;99.90
53208;DHT22;39093;52.788;6.940;2022-09-24T10:53:07;15.00;99.90
53208;DHT22;39093;52.788;6.940;2022-09-24T10:58:33;14.90;99.90
53208;DHT22;39093;52.788;6.940;2022-09-24T11:04:24;14.90;99.90
53208;DHT22;39093;52.788;6.940;2022-09-24T11:09:50;15.00;99.90
53208;DHT22;39093;52.788;6.940;2022-09-24T11:12:38;15.10;99.90
53208;DHT22;39093;52.788;6.940;2022-09-24T11:26:21;14.80;99.90
53208;DHT22;39093;52.788;6.940;2022-09-24T11:29:02;14.70;99.90
53208;DHT22;39093;52.788;6.940;2022-09-24T11:32:03;14.80;99.90
53208;DHT22;39093;52.788;6.940;2022-09-24T11:35:03;14.70;99.90
53208;DHT22;39093;52.788;6.940;2022-09-24T11:54:33;14.60;99.90
53208;DHT22;39093;52.788;6.940;2022-09-24T11:59:51;14.70;99.90
53208;DHT22;39093;52.788;6.940;2022-09-24T12:05:27;14.90;99.90
53208;DHT22;39093;52.788;6.940;2022-09-24T12:08:00;14.80;99.90
53208;DHT22;39093;52.788;6.940;2022-09-24T12:10:36;14.90;99.90
53208;DHT22;39093;52.788;6.940;2022-09-24T12:15:51;15.00;99.90
53208;DHT22;39093;52.788;6.940;2022-09-24T12:18:26;14.90;99.90
53208;DHT22;39093;52.788;6.940;2022-09-24T12:20:58;14.90;99.90
53208;DHT22;39093;52.788;6.940;2022-09-24T12:23:32;14.90;99.90
53208;DHT22;39093;52.788;6.940;2022-09-24T12:26:02;15.00;99.90
53208;DHT22;39093;52.788;6.940;2022-09-24T12:28:40;15.00;99.90
53208;DHT22;39093;52.788;6.940;2022-09-24T12:31:41;15.10;99.90
53208;DHT22;39093;52.788;6.940;2022-09-24T12:34:53;15.20;99.90
53208;DHT22;39093;52.788;6.940;2022-09-24T12:37:27;15.70;99.90
53208;DHT22;39093;52.788;6.940;2022-09-24T12:42:33;15.90;99.90
53208;DHT22;39093;52.788;6.940;2022-09-24T12:45:03;15.80;99.90
53208;DHT22;39093;52.788;6.940;2022-09-24T12:47:43;15.70;99.90
53208;DHT22;39093;52.788;6.940;2022-09-24T12:50:26;15.60;99.90
53208;DHT22;39093;52.788;6.940;2022-09-24T12:52:54;15.50;99.90
53208;DHT22;39093;52.788;6.940;2022-09-24T12:55:33;15.40;99.90
53208;DHT22;39093;52.788;6.940;2022-09-24T12:58:06;15.30;99.90
53208;DHT22;39093;52.788;6.940;2022-09-24T13:00:40;15.20;99.90
53208;DHT22;39093;52.788;6.940;2022-09-24T13:05:56;15.10;99.90
53208;DHT22;39093;52.788;6.940;2022-09-24T13:08:37;15.00;99.90
53208;DHT22;39093;52.788;6.940;2022-09-24T13:11:28;15.00;99.90
53208;DHT22;39093;52.788;6.940;2022-09-24T13:14:17;15.00;99.90
53208;DHT22;39093;52.788;6.940;2022-09-24T13:16:47;15.00;99.90
53208;DHT22;39093;52.788;6.940;2022-09-24T13:21:58;15.10;99.90
53208;DHT22;39093;52.788;6.940;2022-09-24T13:24:31;15.20;99.90
53208;DHT22;39093;52.788;6.940;2022-09-24T13:29:52;15.40;99.90
53208;DHT22;39093;52.788;6.940;2022-09-24T13:32:26;15.60;99.90
53208;DHT22;39093;52.788;6.940;2022-09-24T13:34:53;15.80;99.90
53208;DHT22;39093;52.788;6.940;2022-09-24T13:37:41;15.70;99.90
53208;DHT22;39093;52.788;6.940;2022-09-24T13:40:21;15.50;99.90
53208;DHT22;39093;52.788;6.940;2022-09-24T13:43:09;15.40;99.90
53208;DHT22;39093;52.788;6.940;2022-09-24T13:45:39;15.30;99.90
53208;DHT22;39093;52.788;6.940;2022-09-24T13:50:56;15.10;99.90
53208;DHT22;39093;52.788;6.940;2022-09-24T13:53:47;15.10;99.90
53208;DHT22;39093;52.788;6.940;2022-09-24T13:56:17;15.00;99.90
53208;DHT22;39093;52.788;6.940;2022-09-24T13:58:46;15.00;99.90
53208;DHT22;39093;52.788;6.940;2022-09-24T14:01:23;14.90;99.90
53208;DHT22;39093;52.788;6.940;2022-09-24T14:04:00;14.90;99.90
53208;DHT22;39093;52.788;6.940;2022-09-24T14:09:01;14.80;99.90
53208;DHT22;39093;52.788;6.940;2022-09-24T14:11:28;14.80;99.90
53208;DHT22;39093;52.788;6.940;2022-09-24T14:13:55;14.70;99.90
53208;DHT22;39093;52.788;6.940;2022-09-24T14:16:24;14.70;99.90
53208;DHT22;39093;52.788;6.940;2022-09-24T14:19:02;14.60;99.90
53208;DHT22;39093;52.788;6.940;2022-09-24T14:21:39;14.60;99.90
53208;DHT22;39093;52.788;6.940;2022-09-24T14:24:13;14.60;99.90
53208;DHT22;39093;52.788;6.940;2022-09-24T14:26:47;14.60;99.90
53208;DHT22;39093;52.788;6.940;2022-09-24T14:29:17;14.60;99.90
53208;DHT22;39093;52.788;6.940;2022-09-24T14:32:04;14.60;99.90
53208;DHT22;39093;52.788;6.940;2022-09-24T14:34:39;14.60;99.90
53208;DHT22;39093;52.788;6.940;2022-09-24T14:37:45;14.70;99.90
53208;DHT22;39093;52.788;6.940;2022-09-24T14:40:15;14.70;99.90
53208;DHT22;39093;52.788;6.940;2022-09-24T14:42:48;14.60;99.90
53208;DHT22;39093;52.788;6.940;2022-09-24T14:45:22;14.70;99.90
53208;DHT22;39093;52.788;6.940;2022-09-24T14:48:04;14.60;99.90
53208;DHT22;39093;52.788;6.940;2022-09-24T14:50:39;14.60;99.90
53208;DHT22;39093;52.788;6.940;2022-09-24T14:53:35;14.50;99.90
53208;DHT22;39093;52.788;6.940;2022-09-24T14:56:18;14.50;99.90
53208;DHT22;39093;52.788;6.940;2022-09-24T14:58:46;14.60;99.90
53208;DHT22;39093;52.788;6.940;2022-09-24T15:01:14;14.50;99.90
53208;DHT22;39093;52.788;6.940;2022-09-24T15:03:48;14.50;99.90
53208;DHT22;39093;52.788;6.940;2022-09-24T15:06:19;14.40;99.90
53208;DHT22;39093;52.788;6.940;2022-09-24T15:09:16;14.50;99.90
53208;DHT22;39093;52.788;6.940;2022-09-24T15:11:45;14.40;99.90
53208;DHT22;39093;52.788;6.940;2022-09-24T15:16:43;14.40;99.90
53208;DHT22;39093;52.788;6.940;2022-09-24T15:19:23;14.40;99.90
53208;DHT22;39093;52.788;6.940;2022-09-24T15:21:55;14.40;99.90
53208;DHT22;39093;52.788;6.940;2022-09-24T15:24:23;14.40;99.90
53208;DHT22;39093;52.788;6.940;2022-09-24T15:27:22;14.30;99.90
53208;DHT22;39093;52.788;6.940;2022-09-24T15:29:49;14.30;99.90
53208;DHT22;39093;52.788;6.940;2022-09-24T15:32:18;14.20;99.90
53208;DHT22;39093;52.788;6.940;2022-09-24T15:34:46;14.30;99.90
53208;DHT22;39093;52.788;6.940;2022-09-24T15:37:17;14.30;99.90
53208;DHT22;39093;52.788;6.940;2022-09-24T15:39:44;14.30;99.90
53208;DHT22;39093;52.788;6.940;2022-09-24T15:42:19;14.20;99.90
53208;DHT22;39093;52.788;6.940;2022-09-24T15:44:47;14.20;99.90
53208;DHT22;39093;52.788;6.940;2022-09-24T15:47:17;14.20;99.90
53208;DHT22;39093;52.788;6.940;2022-09-24T15:49:44;14.20;99.90
53208;DHT22;39093;52.788;6.940;2022-09-24T15:52:13;14.20;99.90
53208;DHT22;39093;52.788;6.940;2022-09-24T15:54:40;14.10;99.90
53208;DHT22;39093;52.788;6.940;2022-09-24T15:57:11;14.20;99.90
53208;DHT22;39093;52.788;6.940;2022-09-24T15:59:38;14.10;99.90
53208;DHT22;39093;52.788;6.940;2022-09-24T16:02:16;14.10;99.90
53208;DHT22;39093;52.788;6.940;2022-09-24T16:04:44;14.10;99.90
53208;DHT22;39093;52.788;6.940;2022-09-24T16:07:11;14.10;99.90
53208;DHT22;39093;52.788;6.940;2022-09-24T16:09:38;14.10;99.90
53208;DHT22;39093;52.788;6.940;2022-09-24T16:12:06;14.10;99.90
53208;DHT22;39093;52.788;6.940;2022-09-24T16:14:33;14.10;99.90
53208;DHT22;39093;52.788;6.940;2022-09-24T16:17:00;14.00;99.90
53208;DHT22;39093;52.788;6.940;2022-09-24T16:19:27;14.00;99.90
53208;DHT22;39093;52.788;6.940;2022-09-24T16:21:55;14.00;99.90
53208;DHT22;39093;52.788;6.940;2022-09-24T16:24:22;14.00;99.90
53208;DHT22;39093;52.788;6.940;2022-09-24T16:26:49;14.00;99.90
53208;DHT22;39093;52.788;6.940;2022-09-24T16:29:16;14.10;99.90
53208;DHT22;39093;52.788;6.940;2022-09-24T16:31:44;14.00;99.90
53208;DHT22;39093;52.788;6.940;2022-09-24T16:34:11;14.00;99.90
53208;DHT22;39093;52.788;6.940;2022-09-24T16:36:38;14.00;99.90
53208;DHT22;39093;52.788;6.940;2022-09-24T16:39:05;14.00;99.90
53208;DHT22;39093;52.788;6.940;2022-09-24T16:41:32;14.00;99.90
53208;DHT22;39093;52.788;6.940;2022-09-24T16:44:00;14.00;99.90
53208;DHT22;39093;52.788;6.940;2022-09-24T16:46:28;14.00;99.90
53208;DHT22;39093;52.788;6.940;2022-09-24T16:48:55;14.00;99.90
53208;DHT22;39093;52.788;6.940;2022-09-24T16:51:22;14.00;99.90
53208;DHT22;39093;52.788;6.940;2022-09-24T16:53:54;13.90;99.90
53208;DHT22;39093;52.788;6.940;2022-09-24T16:56:21;13.90;99.90
53208;DHT22;39093;52.788;6.940;2022-09-24T16:58:49;14.00;99.90
53208;DHT22;39093;52.788;6.940;2022-09-24T17:01:18;14.00;99.90
53208;DHT22;39093;52.788;6.940;2022-09-24T17:03:56;14.00;99.90
53208;DHT22;39093;52.788;6.940;2022-09-24T17:06:25;14.00;99.90
53208;DHT22;39093;52.788;6.940;2022-09-24T17:08:53;13.90;99.90
53208;DHT22;39093;52.788;6.940;2022-09-24T17:11:39;14.00;99.90
53208;DHT22;39093;52.788;6.940;2022-09-24T17:14:07;13.90;99.90
53208;DHT22;39093;52.788;6.940;2022-09-24T17:16:34;14.00;99.90
53208;DHT22;39093;52.788;6.940;2022-09-24T17:19:01;13.90;99.90
53208;DHT22;39093;52.788;6.940;2022-09-24T17:21:28;13.90;99.90
53208;DHT22;39093;52.788;6.940;2022-09-24T17:23:55;13.80;99.90
53208;DHT22;39093;52.788;6.940;2022-09-24T17:26:22;13.80;99.90
53208;DHT22;39093;52.788;6.940;2022-09-24T17:28:51;13.80;99.90
53208;DHT22;39093;52.788;6.940;2022-09-24T17:31:21;13.70;99.90
53208;DHT22;39093;52.788;6.940;2022-09-24T17:34:03;13.70;99.90
53208;DHT22;39093;52.788;6.940;2022-09-24T17:36:32;13.60;99.90
53208;DHT22;39093;52.788;6.940;2022-09-24T17:39:00;13.60;99.90
53208;DHT22;39093;52.788;6.940;2022-09-24T17:41:27;13.50;99.90
53208;DHT22;39093;52.788;6.940;2022-09-24T17:43:55;13.50;99.90
53208;DHT22;39093;52.788;6.940;2022-09-24T17:46:30;13.50;99.90